sensor_id;sensor_type;location;lat;lon;timestamp;pressure;altitude;pressure_sealevel;temperature;humidity
77027;BME280;65956;52.986;17.490;2023-07-13T00:00:42;99905.05;;;17.81;81.12
77027;BME280;65956;52.986;17.490;2023-07-13T00:03:28;99908.45;;;17.75;81.09
77027;BME280;65956;52.986;17.490;2023-07-13T00:06:01;99905.80;;;17.71;80.92
77027;BME280;65956;52.986;17.490;2023-07-13T00:08:30;99906.48;;;17.65;81.15
77027;BME280;65956;52.986;17.490;2023-07-13T00:10:58;99918.41;;;17.59;81.05
77027;BME280;65956;52.986;17.490;2023-07-13T00:13:24;99916.84;;;17.51;81.13
77027;BME280;65956;52.986;17.490;2023-07-13T00:15:51;99914.44;;;17.45;81.21
77027;BME280;65956;52.986;17.490;2023-07-13T00:18:17;99914.25;;;17.42;81.36
77027;BME280;65956;52.986;17.490;2023-07-13T00:20:43;99918.66;;;17.39;81.17
77027;BME280;65956;52.986;17.490;2023-07-13T00:23:09;99925.77;;;17.37;81.01
77027;BME280;65956;52.986;17.490;2023-07-13T00:25:35;99930.48;;;17.34;81.03
77027;BME280;65956;52.986;17.490;2023-07-13T00:28:02;99934.36;;;17.33;81.08
77027;BME280;65956;52.986;17.490;2023-07-13T00:30:29;99935.92;;;17.31;81.18
77027;BME280;65956;52.986;17.490;2023-07-13T00:32:57;99939.20;;;17.27;80.88
77027;BME280;65956;52.986;17.490;2023-07-13T00:35:23;99936.60;;;17.19;80.96
77027;BME280;65956;52.986;17.490;2023-07-13T00:37:50;99945.55;;;17.13;80.84
77027;BME280;65956;52.986;17.490;2023-07-13T00:40:17;99951.30;;;17.10;80.81
77027;BME280;65956;52.986;17.490;2023-07-13T00:42:44;99962.99;;;17.08;80.57
77027;BME280;65956;52.986;17.490;2023-07-13T00:47:43;99969.23;;;17.05;80.66
77027;BME280;65956;52.986;17.490;2023-07-13T00:50:12;99970.49;;;17.06;80.55
77027;BME280;65956;52.986;17.490;2023-07-13T00:52:43;99980.38;;;17.07;80.37
77027;BME280;65956;52.986;17.490;2023-07-13T00:55:11;99977.63;;;17.08;80.49
77027;BME280;65956;52.986;17.490;2023-07-13T00:57:38;99973.89;;;17.06;80.28
77027;BME280;65956;52.986;17.490;2023-07-13T01:00:08;99969.39;;;17.05;80.36
77027;BME280;65956;52.986;17.490;2023-07-13T01:02:39;99971.02;;;17.04;80.29
77027;BME280;65956;52.986;17.490;2023-07-13T01:05:16;99971.12;;;17.02;80.39
77027;BME280;65956;52.986;17.490;2023-07-13T01:07:44;99968.35;;;17.00;80.50
77027;BME280;65956;52.986;17.490;2023-07-13T01:10:12;99969.65;;;16.99;80.66
77027;BME280;65956;52.986;17.490;2023-07-13T01:12:38;99966.81;;;17.00;80.77
77027;BME280;65956;52.986;17.490;2023-07-13T01:15:32;99966.62;;;17.02;80.71
77027;BME280;65956;52.986;17.490;2023-07-13T01:17:51;99971.34;;;17.04;80.32
77027;BME280;65956;52.986;17.490;2023-07-13T01:20:18;99969.01;;;17.09;80.30
77027;BME280;65956;52.986;17.490;2023-07-13T01:22:45;99968.16;;;17.12;80.34
77027;BME280;65956;52.986;17.490;2023-07-13T01:25:11;99969.11;;;17.14;80.27
77027;BME280;65956;52.986;17.490;2023-07-13T01:27:36;99969.59;;;17.13;80.16
77027;BME280;65956;52.986;17.490;2023-07-13T01:30:03;99970.09;;;17.12;79.98
77027;BME280;65956;52.986;17.490;2023-07-13T01:32:29;99972.90;;;17.13;79.76
77027;BME280;65956;52.986;17.490;2023-07-13T01:34:57;99970.33;;;17.17;79.20
77027;BME280;65956;52.986;17.490;2023-07-13T01:37:24;99970.64;;;17.24;78.71
77027;BME280;65956;52.986;17.490;2023-07-13T01:39:51;99972.83;;;17.29;78.44
77027;BME280;65956;52.986;17.490;2023-07-13T01:42:17;99975.23;;;17.34;78.15
77027;BME280;65956;52.986;17.490;2023-07-13T01:45:02;99977.57;;;17.39;78.07
77027;BME280;65956;52.986;17.490;2023-07-13T01:47:30;99978.80;;;17.42;77.85
77027;BME280;65956;52.986;17.490;2023-07-13T01:49:57;99971.37;;;17.44;77.67
77027;BME280;65956;52.986;17.490;2023-07-13T01:52:25;99959.73;;;17.46;77.18
77027;BME280;65956;52.986;17.490;2023-07-13T01:54:51;99964.46;;;17.48;76.71
77027;BME280;65956;52.986;17.490;2023-07-13T01:57:17;99963.36;;;17.50;76.40
77027;BME280;65956;52.986;17.490;2023-07-13T01:59:43;99967.89;;;17.54;76.19
77027;BME280;65956;52.986;17.490;2023-07-13T02:02:09;99965.20;;;17.57;76.08
77027;BME280;65956;52.986;17.490;2023-07-13T02:04:35;99966.16;;;17.58;75.93
77027;BME280;65956;52.986;17.490;2023-07-13T02:07:01;99969.05;;;17.59;76.13
77027;BME280;65956;52.986;17.490;2023-07-13T02:09:26;99970.31;;;17.60;76.23
77027;BME280;65956;52.986;17.490;2023-07-13T02:11:52;99964.55;;;17.58;76.56
77027;BME280;65956;52.986;17.490;2023-07-13T02:14:18;99960.02;;;17.48;77.01
77027;BME280;65956;52.986;17.490;2023-07-13T02:16:44;99951.09;;;17.39;77.23
77027;BME280;65956;52.986;17.490;2023-07-13T02:19:10;99954.83;;;17.31;77.43
77027;BME280;65956;52.986;17.490;2023-07-13T02:21:36;99951.02;;;17.24;77.52
77027;BME280;65956;52.986;17.490;2023-07-13T02:24:02;99953.63;;;17.15;77.69
77027;BME280;65956;52.986;17.490;2023-07-13T02:26:28;99955.60;;;17.08;78.03
77027;BME280;65956;52.986;17.490;2023-07-13T02:28:54;99957.22;;;17.01;78.23
77027;BME280;65956;52.986;17.490;2023-07-13T02:31:20;99957.87;;;16.96;78.60
77027;BME280;65956;52.986;17.490;2023-07-13T02:33:46;99966.34;;;16.88;78.78
77027;BME280;65956;52.986;17.490;2023-07-13T02:36:13;99963.92;;;16.77;79.24
77027;BME280;65956;52.986;17.490;2023-07-13T02:38:44;99964.35;;;16.69;79.36
77027;BME280;65956;52.986;17.490;2023-07-13T02:41:10;99963.63;;;16.63;79.35
77027;BME280;65956;52.986;17.490;2023-07-13T02:43:37;99959.49;;;16.58;79.57
77027;BME280;65956;52.986;17.490;2023-07-13T02:46:03;99958.71;;;16.55;80.04
77027;BME280;65956;52.986;17.490;2023-07-13T02:48:37;99964.21;;;16.53;80.16
77027;BME280;65956;52.986;17.490;2023-07-13T02:51:04;99965.45;;;16.51;80.20
77027;BME280;65956;52.986;17.490;2023-07-13T02:53:30;99962.74;;;16.49;80.32
77027;BME280;65956;52.986;17.490;2023-07-13T02:55:57;99960.13;;;16.45;80.46
77027;BME280;65956;52.986;17.490;2023-07-13T02:58:23;99960.98;;;16.42;80.51
77027;BME280;65956;52.986;17.490;2023-07-13T03:00:49;99957.55;;;16.40;80.69
77027;BME280;65956;52.986;17.490;2023-07-13T03:03:17;99962.40;;;16.37;80.54
77027;BME280;65956;52.986;17.490;2023-07-13T03:05:44;99963.97;;;16.34;80.69
77027;BME280;65956;52.986;17.490;2023-07-13T03:08:16;99959.02;;;16.30;80.92
77027;BME280;65956;52.986;17.490;2023-07-13T03:10:44;99960.86;;;16.26;80.82
77027;BME280;65956;52.986;17.490;2023-07-13T03:13:11;99964.55;;;16.25;80.90
77027;BME280;65956;52.986;17.490;2023-07-13T03:15:37;99963.39;;;16.28;81.11
77027;BME280;65956;52.986;17.490;2023-07-13T03:18:04;99963.86;;;16.30;81.06
77027;BME280;65956;52.986;17.490;2023-07-13T03:20:33;99966.34;;;16.31;80.98
77027;BME280;65956;52.986;17.490;2023-07-13T03:22:59;99967.79;;;16.31;81.12
77027;BME280;65956;52.986;17.490;2023-07-13T03:25:26;99965.77;;;16.31;81.03
77027;BME280;65956;52.986;17.490;2023-07-13T03:27:52;99968.39;;;16.33;81.17
77027;BME280;65956;52.986;17.490;2023-07-13T03:30:18;99974.89;;;16.34;81.08
77027;BME280;65956;52.986;17.490;2023-07-13T03:32:44;99979.63;;;16.35;80.96
77027;BME280;65956;52.986;17.490;2023-07-13T03:35:10;99986.19;;;16.37;81.24
77027;BME280;65956;52.986;17.490;2023-07-13T03:37:36;99985.80;;;16.43;81.29
77027;BME280;65956;52.986;17.490;2023-07-13T03:40:10;99981.14;;;16.49;81.29
77027;BME280;65956;52.986;17.490;2023-07-13T03:42:37;99984.52;;;16.55;81.14
77027;BME280;65956;52.986;17.490;2023-07-13T03:45:03;99983.65;;;16.63;81.04
77027;BME280;65956;52.986;17.490;2023-07-13T03:47:30;99984.52;;;16.71;80.76
77027;BME280;65956;52.986;17.490;2023-07-13T03:49:57;99986.21;;;16.81;80.58
77027;BME280;65956;52.986;17.490;2023-07-13T03:52:23;99982.14;;;16.92;80.24
77027;BME280;65956;52.986;17.490;2023-07-13T03:54:49;99972.48;;;17.02;79.70
77027;BME280;65956;52.986;17.490;2023-07-13T03:57:15;99967.33;;;17.14;78.36
77027;BME280;65956;52.986;17.490;2023-07-13T03:59:41;99961.88;;;17.29;77.81
77027;BME280;65956;52.986;17.490;2023-07-13T04:02:07;99963.25;;;17.43;77.24
77027;BME280;65956;52.986;17.490;2023-07-13T04:04:34;99967.54;;;17.57;77.41
77027;BME280;65956;52.986;17.490;2023-07-13T04:06:59;99968.95;;;17.70;77.82
77027;BME280;65956;52.986;17.490;2023-07-13T04:09:25;99963.52;;;17.76;77.64
77027;BME280;65956;52.986;17.490;2023-07-13T04:11:52;99965.36;;;17.81;77.73
77027;BME280;65956;52.986;17.490;2023-07-13T04:14:17;99972.91;;;17.90;77.39
77027;BME280;65956;52.986;17.490;2023-07-13T04:16:43;99979.02;;;18.00;75.98
77027;BME280;65956;52.986;17.490;2023-07-13T04:19:10;99983.13;;;18.14;75.89
77027;BME280;65956;52.986;17.490;2023-07-13T04:21:36;99987.88;;;18.27;75.36
77027;BME280;65956;52.986;17.490;2023-07-13T04:24:03;99993.90;;;18.40;74.68
77027;BME280;65956;52.986;17.490;2023-07-13T04:26:30;100003.32;;;18.53;74.85
77027;BME280;65956;52.986;17.490;2023-07-13T04:28:56;100006.33;;;18.65;74.38
77027;BME280;65956;52.986;17.490;2023-07-13T04:31:23;100005.11;;;18.80;73.38
77027;BME280;65956;52.986;17.490;2023-07-13T04:33:49;100010.55;;;19.01;72.98
77027;BME280;65956;52.986;17.490;2023-07-13T04:36:16;100020.05;;;19.24;71.85
77027;BME280;65956;52.986;17.490;2023-07-13T04:38:42;100025.80;;;19.36;70.98
77027;BME280;65956;52.986;17.490;2023-07-13T04:41:09;100028.70;;;19.48;70.66
77027;BME280;65956;52.986;17.490;2023-07-13T04:43:35;100031.10;;;19.56;70.54
77027;BME280;65956;52.986;17.490;2023-07-13T04:46:07;100030.38;;;19.59;70.16
77027;BME280;65956;52.986;17.490;2023-07-13T04:48:34;100034.24;;;19.59;70.78
77027;BME280;65956;52.986;17.490;2023-07-13T04:51:00;100031.17;;;19.56;70.30
77027;BME280;65956;52.986;17.490;2023-07-13T04:53:28;100042.83;;;19.59;70.71
77027;BME280;65956;52.986;17.490;2023-07-13T04:55:55;100039.92;;;19.65;70.49
77027;BME280;65956;52.986;17.490;2023-07-13T04:58:23;100040.43;;;19.70;70.36
77027;BME280;65956;52.986;17.490;2023-07-13T05:00:49;100041.57;;;19.73;70.25
77027;BME280;65956;52.986;17.490;2023-07-13T05:03:16;100041.34;;;19.86;70.20
77027;BME280;65956;52.986;17.490;2023-07-13T05:05:42;100038.16;;;19.97;69.90
77027;BME280;65956;52.986;17.490;2023-07-13T05:08:08;100042.40;;;20.02;69.60
77027;BME280;65956;52.986;17.490;2023-07-13T05:10:35;100042.60;;;20.13;69.77
77027;BME280;65956;52.986;17.490;2023-07-13T05:13:01;100050.16;;;20.26;70.13
77027;BME280;65956;52.986;17.490;2023-07-13T05:15:27;100046.79;;;20.35;70.05
77027;BME280;65956;52.986;17.490;2023-07-13T05:17:53;100042.88;;;20.40;69.52
77027;BME280;65956;52.986;17.490;2023-07-13T05:20:19;100036.80;;;20.43;69.24
77027;BME280;65956;52.986;17.490;2023-07-13T05:22:45;100034.58;;;20.53;68.52
77027;BME280;65956;52.986;17.490;2023-07-13T05:25:14;100037.20;;;20.60;68.06
77027;BME280;65956;52.986;17.490;2023-07-13T05:27:40;100040.66;;;20.69;68.37
77027;BME280;65956;52.986;17.490;2023-07-13T05:30:07;100041.48;;;20.80;67.35
77027;BME280;65956;52.986;17.490;2023-07-13T05:32:36;100044.58;;;20.85;66.55
77027;BME280;65956;52.986;17.490;2023-07-13T05:35:02;100045.67;;;20.84;66.27
77027;BME280;65956;52.986;17.490;2023-07-13T05:37:28;100041.46;;;20.81;66.87
77027;BME280;65956;52.986;17.490;2023-07-13T05:39:54;100041.21;;;20.85;67.08
77027;BME280;65956;52.986;17.490;2023-07-13T05:42:20;100041.13;;;20.92;67.26
77027;BME280;65956;52.986;17.490;2023-07-13T05:44:46;100040.76;;;21.02;66.44
77027;BME280;65956;52.986;17.490;2023-07-13T05:47:12;100042.61;;;21.11;65.77
77027;BME280;65956;52.986;17.490;2023-07-13T05:49:40;100047.97;;;21.19;65.83
77027;BME280;65956;52.986;17.490;2023-07-13T05:52:06;100048.60;;;21.25;65.64
77027;BME280;65956;52.986;17.490;2023-07-13T05:54:32;100054.16;;;21.31;65.45
77027;BME280;65956;52.986;17.490;2023-07-13T05:56:58;100055.86;;;21.36;65.22
77027;BME280;65956;52.986;17.490;2023-07-13T05:59:24;100063.05;;;21.42;64.45
77027;BME280;65956;52.986;17.490;2023-07-13T06:01:51;100062.82;;;21.49;64.22
77027;BME280;65956;52.986;17.490;2023-07-13T06:04:18;100058.25;;;21.55;64.37
77027;BME280;65956;52.986;17.490;2023-07-13T06:06:45;100061.33;;;21.65;63.44
77027;BME280;65956;52.986;17.490;2023-07-13T06:09:11;100057.48;;;21.75;63.42
77027;BME280;65956;52.986;17.490;2023-07-13T06:11:37;100065.05;;;21.81;63.31
77027;BME280;65956;52.986;17.490;2023-07-13T06:14:03;100064.07;;;21.88;62.55
77027;BME280;65956;52.986;17.490;2023-07-13T06:16:29;100064.15;;;21.96;62.19
77027;BME280;65956;52.986;17.490;2023-07-13T06:18:55;100065.69;;;22.06;62.39
77027;BME280;65956;52.986;17.490;2023-07-13T06:21:22;100065.20;;;22.16;61.76
77027;BME280;65956;52.986;17.490;2023-07-13T06:23:50;100071.92;;;22.30;61.60
77027;BME280;65956;52.986;17.490;2023-07-13T06:26:19;100073.52;;;22.49;61.29
77027;BME280;65956;52.986;17.490;2023-07-13T06:28:46;100071.41;;;22.68;60.55
77027;BME280;65956;52.986;17.490;2023-07-13T06:31:13;100068.27;;;22.85;59.95
77027;BME280;65956;52.986;17.490;2023-07-13T06:33:40;100070.27;;;22.99;59.33
77027;BME280;65956;52.986;17.490;2023-07-13T06:36:08;100065.16;;;23.18;58.96
77027;BME280;65956;52.986;17.490;2023-07-13T06:38:35;100063.20;;;23.32;58.31
77027;BME280;65956;52.986;17.490;2023-07-13T06:41:01;100064.84;;;23.45;58.41
77027;BME280;65956;52.986;17.490;2023-07-13T06:43:27;100068.71;;;23.57;58.14
77027;BME280;65956;52.986;17.490;2023-07-13T06:45:55;100075.81;;;23.64;57.80
77027;BME280;65956;52.986;17.490;2023-07-13T06:48:21;100081.72;;;23.78;57.69
77027;BME280;65956;52.986;17.490;2023-07-13T06:50:49;100086.76;;;23.92;56.61
77027;BME280;65956;52.986;17.490;2023-07-13T06:53:19;100090.44;;;23.90;56.02
77027;BME280;65956;52.986;17.490;2023-07-13T06:55:45;100090.61;;;23.89;56.29
77027;BME280;65956;52.986;17.490;2023-07-13T06:58:12;100092.50;;;23.97;56.51
77027;BME280;65956;52.986;17.490;2023-07-13T07:00:38;100095.24;;;24.09;56.53
77027;BME280;65956;52.986;17.490;2023-07-13T07:03:06;100094.98;;;24.25;56.01
77027;BME280;65956;52.986;17.490;2023-07-13T07:05:32;100092.41;;;24.27;55.30
77027;BME280;65956;52.986;17.490;2023-07-13T07:07:59;100093.25;;;24.22;55.13
77027;BME280;65956;52.986;17.490;2023-07-13T07:10:25;100091.83;;;24.13;54.75
77027;BME280;65956;52.986;17.490;2023-07-13T07:12:52;100096.84;;;24.14;54.90
77027;BME280;65956;52.986;17.490;2023-07-13T07:15:18;100098.48;;;24.06;54.14
77027;BME280;65956;52.986;17.490;2023-07-13T07:17:44;100095.97;;;24.00;54.35
77027;BME280;65956;52.986;17.490;2023-07-13T07:20:10;100098.83;;;23.95;54.31
77027;BME280;65956;52.986;17.490;2023-07-13T07:22:36;100103.63;;;23.99;54.60
77027;BME280;65956;52.986;17.490;2023-07-13T07:25:03;100106.42;;;24.12;54.41
77027;BME280;65956;52.986;17.490;2023-07-13T07:27:29;100101.08;;;24.09;53.40
77027;BME280;65956;52.986;17.490;2023-07-13T07:29:54;100104.38;;;24.09;53.50
77027;BME280;65956;52.986;17.490;2023-07-13T07:32:20;100108.64;;;24.08;52.83
77027;BME280;65956;52.986;17.490;2023-07-13T07:34:46;100106.80;;;24.05;52.77
77027;BME280;65956;52.986;17.490;2023-07-13T07:37:13;100110.02;;;24.10;51.38
77027;BME280;65956;52.986;17.490;2023-07-13T07:39:40;100102.11;;;24.16;52.87
77027;BME280;65956;52.986;17.490;2023-07-13T07:42:06;100100.05;;;24.17;51.59
77027;BME280;65956;52.986;17.490;2023-07-13T07:44:33;100100.73;;;24.06;51.94
77027;BME280;65956;52.986;17.490;2023-07-13T07:46:59;100095.98;;;24.03;52.28
77027;BME280;65956;52.986;17.490;2023-07-13T07:49:26;100098.33;;;24.07;51.22
77027;BME280;65956;52.986;17.490;2023-07-13T07:51:52;100100.59;;;24.10;50.65
77027;BME280;65956;52.986;17.490;2023-07-13T07:54:18;100100.09;;;24.18;50.89
77027;BME280;65956;52.986;17.490;2023-07-13T07:56:44;100106.80;;;24.31;49.42
77027;BME280;65956;52.986;17.490;2023-07-13T07:59:10;100109.02;;;24.53;48.76
77027;BME280;65956;52.986;17.490;2023-07-13T08:01:36;100108.77;;;24.87;48.43
77027;BME280;65956;52.986;17.490;2023-07-13T08:04:03;100104.80;;;25.31;47.76
77027;BME280;65956;52.986;17.490;2023-07-13T08:06:31;100101.30;;;25.54;47.44
77027;BME280;65956;52.986;17.490;2023-07-13T08:09:00;100102.59;;;25.64;47.28
77027;BME280;65956;52.986;17.490;2023-07-13T08:11:30;100102.51;;;25.68;48.18
77027;BME280;65956;52.986;17.490;2023-07-13T08:13:56;100100.36;;;25.73;47.56
77027;BME280;65956;52.986;17.490;2023-07-13T08:16:23;100103.30;;;25.70;47.44
77027;BME280;65956;52.986;17.490;2023-07-13T08:18:49;100104.02;;;25.60;46.98
77027;BME280;65956;52.986;17.490;2023-07-13T08:21:15;100095.13;;;25.53;47.54
77027;BME280;65956;52.986;17.490;2023-07-13T08:23:41;100099.42;;;25.41;47.28
77027;BME280;65956;52.986;17.490;2023-07-13T08:26:07;100100.04;;;25.37;48.11
77027;BME280;65956;52.986;17.490;2023-07-13T08:28:34;100098.21;;;25.37;47.82
77027;BME280;65956;52.986;17.490;2023-07-13T08:31:04;100098.11;;;25.33;47.60
77027;BME280;65956;52.986;17.490;2023-07-13T08:33:30;100099.09;;;25.29;47.88
77027;BME280;65956;52.986;17.490;2023-07-13T08:35:56;100098.27;;;25.28;48.09
77027;BME280;65956;52.986;17.490;2023-07-13T08:38:22;100099.67;;;25.23;48.22
77027;BME280;65956;52.986;17.490;2023-07-13T08:40:55;100103.48;;;25.26;48.02
77027;BME280;65956;52.986;17.490;2023-07-13T08:43:31;100101.53;;;25.35;47.65
77027;BME280;65956;52.986;17.490;2023-07-13T08:48:33;100099.51;;;25.64;47.92
77027;BME280;65956;52.986;17.490;2023-07-13T08:51:34;100098.84;;;25.73;47.45
77027;BME280;65956;52.986;17.490;2023-07-13T08:54:03;100097.06;;;25.64;47.53
77027;BME280;65956;52.986;17.490;2023-07-13T08:56:32;100102.73;;;25.45;47.65
77027;BME280;65956;52.986;17.490;2023-07-13T08:59:04;100102.34;;;25.20;47.76
77027;BME280;65956;52.986;17.490;2023-07-13T09:04:50;100097.54;;;25.17;48.96
77027;BME280;65956;52.986;17.490;2023-07-13T09:12:56;100089.99;;;25.61;48.30
77027;BME280;65956;52.986;17.490;2023-07-13T09:15:32;100091.31;;;25.51;48.53
77027;BME280;65956;52.986;17.490;2023-07-13T09:18:18;100096.02;;;25.44;47.59
77027;BME280;65956;52.986;17.490;2023-07-13T09:21:17;100100.23;;;25.52;46.90
77027;BME280;65956;52.986;17.490;2023-07-13T09:23:48;100099.13;;;25.63;46.68
77027;BME280;65956;52.986;17.490;2023-07-13T09:26:21;100096.39;;;25.76;46.42
77027;BME280;65956;52.986;17.490;2023-07-13T09:28:51;100096.38;;;25.86;45.70
77027;BME280;65956;52.986;17.490;2023-07-13T09:31:24;100098.56;;;25.98;45.52
77027;BME280;65956;52.986;17.490;2023-07-13T09:33:51;100097.45;;;26.08;45.48
77027;BME280;65956;52.986;17.490;2023-07-13T09:36:24;100096.66;;;26.36;45.64
77027;BME280;65956;52.986;17.490;2023-07-13T09:41:51;100090.71;;;26.47;42.10
77027;BME280;65956;52.986;17.490;2023-07-13T09:44:37;100094.04;;;26.33;42.23
77027;BME280;65956;52.986;17.490;2023-07-13T09:47:15;100096.83;;;26.30;42.96
77027;BME280;65956;52.986;17.490;2023-07-13T09:49:42;100097.89;;;26.33;41.99
77027;BME280;65956;52.986;17.490;2023-07-13T09:52:12;100098.42;;;26.24;42.46
77027;BME280;65956;52.986;17.490;2023-07-13T09:54:41;100100.45;;;26.09;42.01
77027;BME280;65956;52.986;17.490;2023-07-13T09:57:16;100099.39;;;25.91;42.22
77027;BME280;65956;52.986;17.490;2023-07-13T09:59:51;100094.72;;;25.78;41.94
77027;BME280;65956;52.986;17.490;2023-07-13T10:02:35;100096.66;;;25.70;42.42
77027;BME280;65956;52.986;17.490;2023-07-13T10:05:05;100099.59;;;25.55;42.57
77027;BME280;65956;52.986;17.490;2023-07-13T10:07:32;100102.25;;;25.52;42.95
77027;BME280;65956;52.986;17.490;2023-07-13T10:10:00;100100.30;;;25.65;42.97
77027;BME280;65956;52.986;17.490;2023-07-13T10:12:30;100097.48;;;25.79;43.30
77027;BME280;65956;52.986;17.490;2023-07-13T10:15:01;100094.17;;;25.90;43.18
77027;BME280;65956;52.986;17.490;2023-07-13T10:17:32;100092.64;;;25.82;42.70
77027;BME280;65956;52.986;17.490;2023-07-13T10:20:03;100093.92;;;25.72;43.23
77027;BME280;65956;52.986;17.490;2023-07-13T10:22:54;100092.84;;;25.65;44.02
77027;BME280;65956;52.986;17.490;2023-07-13T10:25:25;100097.11;;;25.70;44.53
77027;BME280;65956;52.986;17.490;2023-07-13T10:27:55;100095.91;;;25.59;44.03
77027;BME280;65956;52.986;17.490;2023-07-13T10:30:27;100091.52;;;25.45;44.42
77027;BME280;65956;52.986;17.490;2023-07-13T10:33:00;100094.41;;;25.34;44.58
77027;BME280;65956;52.986;17.490;2023-07-13T10:35:29;100097.36;;;25.45;44.39
77027;BME280;65956;52.986;17.490;2023-07-13T10:40:39;100098.94;;;26.27;43.72
77027;BME280;65956;52.986;17.490;2023-07-13T10:43:31;100103.97;;;26.67;41.57
77027;BME280;65956;52.986;17.490;2023-07-13T10:46:00;100094.73;;;27.01;40.72
77027;BME280;65956;52.986;17.490;2023-07-13T10:48:28;100088.92;;;27.46;40.38
77027;BME280;65956;52.986;17.490;2023-07-13T10:50:55;100085.42;;;27.95;38.38
77027;BME280;65956;52.986;17.490;2023-07-13T10:53:35;100077.08;;;28.40;35.98
77027;BME280;65956;52.986;17.490;2023-07-13T10:56:18;100083.27;;;28.63;36.39
77027;BME280;65956;52.986;17.490;2023-07-13T11:04:20;100091.13;;;28.46;35.77
77027;BME280;65956;52.986;17.490;2023-07-13T11:06:48;100094.66;;;28.03;35.31
77027;BME280;65956;52.986;17.490;2023-07-13T11:11:47;100100.58;;;27.26;37.17
77027;BME280;65956;52.986;17.490;2023-07-13T11:14:36;100095.77;;;27.05;38.16
77027;BME280;65956;52.986;17.490;2023-07-13T11:17:50;100101.98;;;26.83;38.76
77027;BME280;65956;52.986;17.490;2023-07-13T11:22:51;100097.79;;;26.43;39.69
77027;BME280;65956;52.986;17.490;2023-07-13T11:28:13;100100.48;;;26.28;39.38
77027;BME280;65956;52.986;17.490;2023-07-13T11:33:51;100102.66;;;25.99;40.45
77027;BME280;65956;52.986;17.490;2023-07-13T11:36:22;100101.11;;;25.85;40.90
77027;BME280;65956;52.986;17.490;2023-07-13T11:38:59;100101.15;;;26.38;40.53
77027;BME280;65956;52.986;17.490;2023-07-13T11:41:43;100103.63;;;26.41;39.90
77027;BME280;65956;52.986;17.490;2023-07-13T11:44:20;100098.19;;;26.26;39.53
77027;BME280;65956;52.986;17.490;2023-07-13T11:46:52;100101.73;;;26.09;39.43
77027;BME280;65956;52.986;17.490;2023-07-13T11:49:21;100107.30;;;25.90;39.89
77027;BME280;65956;52.986;17.490;2023-07-13T11:51:48;100095.80;;;25.80;39.35
77027;BME280;65956;52.986;17.490;2023-07-13T11:54:31;100097.75;;;25.66;39.22
77027;BME280;65956;52.986;17.490;2023-07-13T11:57:26;100101.94;;;25.57;39.60
77027;BME280;65956;52.986;17.490;2023-07-13T11:59:55;100106.65;;;25.50;41.78
77027;BME280;65956;52.986;17.490;2023-07-13T12:02:45;100107.49;;;25.31;43.41
77027;BME280;65956;52.986;17.490;2023-07-13T12:05:14;100108.67;;;25.00;44.44
77027;BME280;65956;52.986;17.490;2023-07-13T12:07:41;100108.41;;;24.84;45.60
77027;BME280;65956;52.986;17.490;2023-07-13T12:12:58;100106.48;;;25.03;45.33
77027;BME280;65956;52.986;17.490;2023-07-13T12:15:45;100107.86;;;25.27;44.97
77027;BME280;65956;52.986;17.490;2023-07-13T12:18:20;100111.80;;;25.49;44.39
77027;BME280;65956;52.986;17.490;2023-07-13T12:20:49;100113.23;;;25.75;43.82
77027;BME280;65956;52.986;17.490;2023-07-13T12:25:52;100099.59;;;27.41;40.24
77027;BME280;65956;52.986;17.490;2023-07-13T12:28:30;100095.71;;;28.28;38.35
77027;BME280;65956;52.986;17.490;2023-07-13T12:31:01;100095.19;;;29.08;36.51
77027;BME280;65956;52.986;17.490;2023-07-13T12:33:29;100089.14;;;29.67;34.55
77027;BME280;65956;52.986;17.490;2023-07-13T12:35:57;100086.06;;;30.08;33.94
77027;BME280;65956;52.986;17.490;2023-07-13T12:38:25;100083.26;;;30.90;33.47
77027;BME280;65956;52.986;17.490;2023-07-13T12:40:52;100080.35;;;31.63;31.37
77027;BME280;65956;52.986;17.490;2023-07-13T12:43:20;100083.98;;;33.36;28.95
77027;BME280;65956;52.986;17.490;2023-07-13T12:45:57;100083.23;;;33.77;27.37
77027;BME280;65956;52.986;17.490;2023-07-13T12:48:24;100083.79;;;33.75;27.27
77027;BME280;65956;52.986;17.490;2023-07-13T12:50:53;100073.09;;;33.19;27.34
77027;BME280;65956;52.986;17.490;2023-07-13T12:53:29;100077.55;;;33.99;26.87
77027;BME280;65956;52.986;17.490;2023-07-13T12:55:59;100081.65;;;34.12;27.42
77027;BME280;65956;52.986;17.490;2023-07-13T12:58:36;100077.59;;;34.61;27.19
77027;BME280;65956;52.986;17.490;2023-07-13T13:01:04;100079.59;;;34.17;26.78
77027;BME280;65956;52.986;17.490;2023-07-13T13:03:34;100074.04;;;32.83;26.03
77027;BME280;65956;52.986;17.490;2023-07-13T13:06:19;100065.31;;;32.18;25.72
77027;BME280;65956;52.986;17.490;2023-07-13T13:08:51;100066.96;;;32.11;25.41
77027;BME280;65956;52.986;17.490;2023-07-13T13:11:19;100060.64;;;31.77;25.41
77027;BME280;65956;52.986;17.490;2023-07-13T13:13:46;100053.09;;;31.81;25.30
77027;BME280;65956;52.986;17.490;2023-07-13T13:18:50;100061.53;;;35.36;21.62
77027;BME280;65956;52.986;17.490;2023-07-13T13:21:17;100061.34;;;36.43;21.04
77027;BME280;65956;52.986;17.490;2023-07-13T13:23:45;100067.27;;;35.70;20.63
77027;BME280;65956;52.986;17.490;2023-07-13T13:26:13;100067.34;;;33.47;22.88
77027;BME280;65956;52.986;17.490;2023-07-13T13:28:42;100057.79;;;32.36;23.82
77027;BME280;65956;52.986;17.490;2023-07-13T13:31:13;100065.33;;;33.60;22.36
77027;BME280;65956;52.986;17.490;2023-07-13T13:33:43;100067.40;;;34.36;21.15
77027;BME280;65956;52.986;17.490;2023-07-13T13:36:18;100057.98;;;35.13;20.07